sensor_id;sensor_type;location;lat;lon;timestamp;temperature;humidity
50570;DHT22;36525;49.398;7.614;2022-12-07T00:01:36;3.10;99.90
50570;DHT22;36525;49.398;7.614;2022-12-07T00:04:06;3.10;99.90
50570;DHT22;36525;49.398;7.614;2022-12-07T00:06:37;3.10;99.90
50570;DHT22;36525;49.398;7.614;2022-12-07T00:09:13;3.10;99.90
50570;DHT22;36525;49.398;7.614;2022-12-07T00:11:41;3.10;99.90
50570;DHT22;36525;49.398;7.614;2022-12-07T00:14:13;3.10;99.90
50570;DHT22;36525;49.398;7.614;2022-12-07T00:16:42;3.10;99.90
50570;DHT22;36525;49.398;7.614;2022-12-07T00:19:11;3.00;99.90
50570;DHT22;36525;49.398;7.614;2022-12-07T00:21:39;3.00;99.90
50570;DHT22;36525;49.398;7.614;2022-12-07T00:24:06;3.00;99.90
50570;DHT22;36525;49.398;7.614;2022-12-07T00:26:36;3.10;99.90
50570;DHT22;36525;49.398;7.614;2022-12-07T00:29:18;3.10;99.90
50570;DHT22;36525;49.398;7.614;2022-12-07T00:31:47;3.20;99.90
50570;DHT22;36525;49.398;7.614;2022-12-07T00:34:17;3.10;99.90
50570;DHT22;36525;49.398;7.614;2022-12-07T00:36:49;3.10;99.90
50570;DHT22;36525;49.398;7.614;2022-12-07T00:39:16;3.10;99.90
50570;DHT22;36525;49.398;7.614;2022-12-07T00:41:43;3.10;99.90
50570;DHT22;36525;49.398;7.614;2022-12-07T00:44:10;3.10;99.90
50570;DHT22;36525;49.398;7.614;2022-12-07T00:46:37;3.10;99.90
50570;DHT22;36525;49.398;7.614;2022-12-07T00:49:04;3.10;99.90
50570;DHT22;36525;49.398;7.614;2022-12-07T00:51:31;3.10;99.90
50570;DHT22;36525;49.398;7.614;2022-12-07T00:53:58;3.10;99.90
50570;DHT22;36525;49.398;7.614;2022-12-07T00:56:27;3.10;99.90
50570;DHT22;36525;49.398;7.614;2022-12-07T00:59:00;3.20;99.90
50570;DHT22;36525;49.398;7.614;2022-12-07T01:01:29;3.30;99.90
50570;DHT22;36525;49.398;7.614;2022-12-07T01:03:57;3.30;99.90
50570;DHT22;36525;49.398;7.614;2022-12-07T01:06:25;3.20;99.90
50570;DHT22;36525;49.398;7.614;2022-12-07T01:08:52;3.20;99.90
50570;DHT22;36525;49.398;7.614;2022-12-07T01:11:25;3.20;99.90
50570;DHT22;36525;49.398;7.614;2022-12-07T01:13:55;3.20;99.90
50570;DHT22;36525;49.398;7.614;2022-12-07T01:16:25;3.10;99.90
50570;DHT22;36525;49.398;7.614;2022-12-07T01:18:55;3.10;99.90
50570;DHT22;36525;49.398;7.614;2022-12-07T01:21:28;3.10;99.90
50570;DHT22;36525;49.398;7.614;2022-12-07T01:23:57;3.10;99.90
50570;DHT22;36525;49.398;7.614;2022-12-07T01:26:25;3.20;99.90
50570;DHT22;36525;49.398;7.614;2022-12-07T01:28:53;3.10;99.90
50570;DHT22;36525;49.398;7.614;2022-12-07T01:31:23;3.10;99.90
50570;DHT22;36525;49.398;7.614;2022-12-07T01:33:54;3.00;99.90
50570;DHT22;36525;49.398;7.614;2022-12-07T01:36:26;3.00;99.90
50570;DHT22;36525;49.398;7.614;2022-12-07T01:39:00;2.90;99.90
50570;DHT22;36525;49.398;7.614;2022-12-07T01:41:32;2.90;99.90
50570;DHT22;36525;49.398;7.614;2022-12-07T01:46:59;2.90;99.90
50570;DHT22;36525;49.398;7.614;2022-12-07T01:49:46;2.80;99.90
50570;DHT22;36525;49.398;7.614;2022-12-07T01:52:23;2.70;99.90
50570;DHT22;36525;49.398;7.614;2022-12-07T01:55:03;2.70;99.90
50570;DHT22;36525;49.398;7.614;2022-12-07T01:57:33;2.70;99.90
50570;DHT22;36525;49.398;7.614;2022-12-07T02:00:02;2.80;99.90
50570;DHT22;36525;49.398;7.614;2022-12-07T02:02:44;2.80;99.90
50570;DHT22;36525;49.398;7.614;2022-12-07T02:05:14;2.90;99.90
50570;DHT22;36525;49.398;7.614;2022-12-07T02:07:42;2.90;99.90
50570;DHT22;36525;49.398;7.614;2022-12-07T02:10:35;2.90;99.90
50570;DHT22;36525;49.398;7.614;2022-12-07T02:13:23;2.80;99.90
50570;DHT22;36525;49.398;7.614;2022-12-07T02:28:29;2.70;99.90
50570;DHT22;36525;49.398;7.614;2022-12-07T02:31:02;2.80;99.90
50570;DHT22;36525;49.398;7.614;2022-12-07T02:33:57;2.80;99.90
50570;DHT22;36525;49.398;7.614;2022-12-07T02:36:46;2.80;99.90
50570;DHT22;36525;49.398;7.614;2022-12-07T02:39:53;2.70;99.90
50570;DHT22;36525;49.398;7.614;2022-12-07T02:42:30;2.80;99.90
50570;DHT22;36525;49.398;7.614;2022-12-07T02:45:00;2.80;99.90
50570;DHT22;36525;49.398;7.614;2022-12-07T02:47:28;2.80;99.90
50570;DHT22;36525;49.398;7.614;2022-12-07T02:49:56;2.80;99.90
50570;DHT22;36525;49.398;7.614;2022-12-07T02:52:23;2.70;99.90
50570;DHT22;36525;49.398;7.614;2022-12-07T02:54:50;2.60;99.90
50570;DHT22;36525;49.398;7.614;2022-12-07T02:57:31;2.60;99.90
50570;DHT22;36525;49.398;7.614;2022-12-07T03:00:09;2.60;99.90
50570;DHT22;36525;49.398;7.614;2022-12-07T03:11:21;2.50;99.90
50570;DHT22;36525;49.398;7.614;2022-12-07T03:16:33;2.60;99.90
50570;DHT22;36525;49.398;7.614;2022-12-07T03:19:23;2.50;99.90
50570;DHT22;36525;49.398;7.614;2022-12-07T03:21:57;2.50;99.90
50570;DHT22;36525;49.398;7.614;2022-12-07T03:24:35;2.50;99.90
50570;DHT22;36525;49.398;7.614;2022-12-07T03:27:25;2.50;99.90
50570;DHT22;36525;49.398;7.614;2022-12-07T03:32:45;2.50;99.90
50570;DHT22;36525;49.398;7.614;2022-12-07T03:39:08;2.50;99.90
50570;DHT22;36525;49.398;7.614;2022-12-07T03:41:36;2.40;99.90
50570;DHT22;36525;49.398;7.614;2022-12-07T03:44:10;2.40;99.90
50570;DHT22;36525;49.398;7.614;2022-12-07T03:46:44;2.50;99.90
50570;DHT22;36525;49.398;7.614;2022-12-07T03:49:55;2.50;99.90
50570;DHT22;36525;49.398;7.614;2022-12-07T03:52:40;2.50;99.90
50570;DHT22;36525;49.398;7.614;2022-12-07T03:58:02;2.50;99.90
50570;DHT22;36525;49.398;7.614;2022-12-07T04:00:32;2.50;99.90
50570;DHT22;36525;49.398;7.614;2022-12-07T04:02:59;2.50;99.90
50570;DHT22;36525;49.398;7.614;2022-12-07T04:05:26;2.50;99.90
50570;DHT22;36525;49.398;7.614;2022-12-07T04:07:53;2.50;99.90
50570;DHT22;36525;49.398;7.614;2022-12-07T04:10:21;2.50;99.90
50570;DHT22;36525;49.398;7.614;2022-12-07T04:12:47;2.50;99.90
50570;DHT22;36525;49.398;7.614;2022-12-07T04:15:14;2.60;99.90
50570;DHT22;36525;49.398;7.614;2022-12-07T04:17:42;2.70;99.90
50570;DHT22;36525;49.398;7.614;2022-12-07T04:20:10;2.70;99.90
50570;DHT22;36525;49.398;7.614;2022-12-07T04:22:38;2.70;99.90
50570;DHT22;36525;49.398;7.614;2022-12-07T04:25:05;2.70;99.90
50570;DHT22;36525;49.398;7.614;2022-12-07T04:27:32;2.70;99.90
50570;DHT22;36525;49.398;7.614;2022-12-07T04:29:59;2.70;99.90
50570;DHT22;36525;49.398;7.614;2022-12-07T04:32:27;2.70;99.90
50570;DHT22;36525;49.398;7.614;2022-12-07T04:34:54;2.60;99.90
50570;DHT22;36525;49.398;7.614;2022-12-07T04:37:22;2.70;99.90
50570;DHT22;36525;49.398;7.614;2022-12-07T04:39:50;2.60;99.90
50570;DHT22;36525;49.398;7.614;2022-12-07T04:42:17;2.60;99.90
50570;DHT22;36525;49.398;7.614;2022-12-07T04:44:44;2.60;99.90
50570;DHT22;36525;49.398;7.614;2022-12-07T04:47:11;2.70;99.90
50570;DHT22;36525;49.398;7.614;2022-12-07T04:49:38;2.70;99.90
50570;DHT22;36525;49.398;7.614;2022-12-07T04:52:05;2.70;99.90
50570;DHT22;36525;49.398;7.614;2022-12-07T04:54:32;2.60;99.90
50570;DHT22;36525;49.398;7.614;2022-12-07T04:56:59;2.60;99.90
50570;DHT22;36525;49.398;7.614;2022-12-07T04:59:26;2.60;99.90
50570;DHT22;36525;49.398;7.614;2022-12-07T05:01:53;2.60;99.90
50570;DHT22;36525;49.398;7.614;2022-12-07T05:04:20;2.70;99.90
50570;DHT22;36525;49.398;7.614;2022-12-07T05:06:47;2.60;99.90
50570;DHT22;36525;49.398;7.614;2022-12-07T05:09:13;2.60;99.90
50570;DHT22;36525;49.398;7.614;2022-12-07T05:11:40;2.70;99.90
50570;DHT22;36525;49.398;7.614;2022-12-07T05:14:19;2.70;99.90
50570;DHT22;36525;49.398;7.614;2022-12-07T05:16:48;2.70;99.90
50570;DHT22;36525;49.398;7.614;2022-12-07T05:19:18;2.70;99.90
50570;DHT22;36525;49.398;7.614;2022-12-07T05:21:45;2.70;99.90
50570;DHT22;36525;49.398;7.614;2022-12-07T05:24:14;2.70;99.90
50570;DHT22;36525;49.398;7.614;2022-12-07T05:26:42;2.80;99.90
50570;DHT22;36525;49.398;7.614;2022-12-07T05:29:14;2.80;99.90
50570;DHT22;36525;49.398;7.614;2022-12-07T05:31:43;2.90;99.90
50570;DHT22;36525;49.398;7.614;2022-12-07T05:34:11;2.80;99.90
50570;DHT22;36525;49.398;7.614;2022-12-07T05:36:38;2.90;99.90
50570;DHT22;36525;49.398;7.614;2022-12-07T05:39:04;2.80;99.90
50570;DHT22;36525;49.398;7.614;2022-12-07T05:41:31;2.80;99.90
50570;DHT22;36525;49.398;7.614;2022-12-07T05:44:17;2.80;99.90
50570;DHT22;36525;49.398;7.614;2022-12-07T05:46:44;2.90;99.90
50570;DHT22;36525;49.398;7.614;2022-12-07T05:49:11;2.90;99.90
50570;DHT22;36525;49.398;7.614;2022-12-07T05:51:38;2.90;99.90
50570;DHT22;36525;49.398;7.614;2022-12-07T05:54:06;2.90;99.90
50570;DHT22;36525;49.398;7.614;2022-12-07T05:56:32;2.90;99.90
50570;DHT22;36525;49.398;7.614;2022-12-07T05:58:59;2.80;99.90
50570;DHT22;36525;49.398;7.614;2022-12-07T06:01:45;2.80;99.90
50570;DHT22;36525;49.398;7.614;2022-12-07T06:04:12;2.80;99.90
50570;DHT22;36525;49.398;7.614;2022-12-07T06:06:39;2.70;99.90
50570;DHT22;36525;49.398;7.614;2022-12-07T06:09:06;2.70;99.90
50570;DHT22;36525;49.398;7.614;2022-12-07T06:11:33;2.70;99.90
50570;DHT22;36525;49.398;7.614;2022-12-07T06:14:18;2.70;99.90
50570;DHT22;36525;49.398;7.614;2022-12-07T06:16:46;2.80;99.90
50570;DHT22;36525;49.398;7.614;2022-12-07T06:19:13;2.80;99.90
50570;DHT22;36525;49.398;7.614;2022-12-07T06:21:40;2.80;99.90
50570;DHT22;36525;49.398;7.614;2022-12-07T06:24:07;2.70;99.90
50570;DHT22;36525;49.398;7.614;2022-12-07T06:26:35;2.70;99.90
50570;DHT22;36525;49.398;7.614;2022-12-07T06:29:02;2.80;99.90
50570;DHT22;36525;49.398;7.614;2022-12-07T06:31:28;2.80;99.90
50570;DHT22;36525;49.398;7.614;2022-12-07T06:34:04;2.90;99.90
50570;DHT22;36525;49.398;7.614;2022-12-07T06:36:33;2.80;99.90
50570;DHT22;36525;49.398;7.614;2022-12-07T06:39:00;2.80;99.90
50570;DHT22;36525;49.398;7.614;2022-12-07T06:41:27;2.80;99.90
50570;DHT22;36525;49.398;7.614;2022-12-07T06:43:54;2.80;99.90
50570;DHT22;36525;49.398;7.614;2022-12-07T06:46:22;2.80;99.90
50570;DHT22;36525;49.398;7.614;2022-12-07T06:48:50;2.80;99.90
50570;DHT22;36525;49.398;7.614;2022-12-07T06:51:17;2.80;99.90
50570;DHT22;36525;49.398;7.614;2022-12-07T06:53:44;2.80;99.90
50570;DHT22;36525;49.398;7.614;2022-12-07T06:56:11;2.80;99.90
50570;DHT22;36525;49.398;7.614;2022-12-07T06:58:38;2.80;99.90
50570;DHT22;36525;49.398;7.614;2022-12-07T07:01:13;2.90;99.90
50570;DHT22;36525;49.398;7.614;2022-12-07T07:03:42;2.80;99.90
50570;DHT22;36525;49.398;7.614;2022-12-07T07:06:09;2.80;99.90
50570;DHT22;36525;49.398;7.614;2022-12-07T07:08:37;2.80;99.90
50570;DHT22;36525;49.398;7.614;2022-12-07T07:11:05;2.80;99.90
50570;DHT22;36525;49.398;7.614;2022-12-07T07:13:33;2.80;99.90
50570;DHT22;36525;49.398;7.614;2022-12-07T07:16:00;2.80;99.90
50570;DHT22;36525;49.398;7.614;2022-12-07T07:18:27;2.90;99.90
50570;DHT22;36525;49.398;7.614;2022-12-07T07:20:54;2.90;99.90
50570;DHT22;36525;49.398;7.614;2022-12-07T07:23:22;3.00;99.90
50570;DHT22;36525;49.398;7.614;2022-12-07T07:25:49;3.00;99.90
50570;DHT22;36525;49.398;7.614;2022-12-07T07:28:16;3.10;99.90
50570;DHT22;36525;49.398;7.614;2022-12-07T07:30:44;3.10;99.90
50570;DHT22;36525;49.398;7.614;2022-12-07T07:33:12;3.10;99.90
50570;DHT22;36525;49.398;7.614;2022-12-07T07:35:39;3.10;99.90
50570;DHT22;36525;49.398;7.614;2022-12-07T07:38:06;3.00;99.90
50570;DHT22;36525;49.398;7.614;2022-12-07T07:40:34;3.00;99.90
50570;DHT22;36525;49.398;7.614;2022-12-07T07:43:01;3.10;99.90
50570;DHT22;36525;49.398;7.614;2022-12-07T07:45:28;3.10;99.90
50570;DHT22;36525;49.398;7.614;2022-12-07T07:47:55;3.10;99.90
50570;DHT22;36525;49.398;7.614;2022-12-07T07:50:22;3.10;99.90
50570;DHT22;36525;49.398;7.614;2022-12-07T07:52:50;3.20;99.90
50570;DHT22;36525;49.398;7.614;2022-12-07T07:55:17;3.20;99.90
50570;DHT22;36525;49.398;7.614;2022-12-07T07:57:44;3.20;99.90
50570;DHT22;36525;49.398;7.614;2022-12-07T08:00:20;3.30;99.90
50570;DHT22;36525;49.398;7.614;2022-12-07T08:02:47;3.20;99.90
50570;DHT22;36525;49.398;7.614;2022-12-07T08:05:14;3.30;99.90
50570;DHT22;36525;49.398;7.614;2022-12-07T08:07:42;3.30;99.90
50570;DHT22;36525;49.398;7.614;2022-12-07T08:10:12;3.30;99.90
50570;DHT22;36525;49.398;7.614;2022-12-07T08:12:41;3.30;99.90
50570;DHT22;36525;49.398;7.614;2022-12-07T08:15:29;3.30;99.90
50570;DHT22;36525;49.398;7.614;2022-12-07T08:17:57;3.40;99.90
50570;DHT22;36525;49.398;7.614;2022-12-07T08:20:24;3.30;99.90
50570;DHT22;36525;49.398;7.614;2022-12-07T08:22:51;3.40;99.90
50570;DHT22;36525;49.398;7.614;2022-12-07T08:25:19;3.30;99.90
50570;DHT22;36525;49.398;7.614;2022-12-07T08:27:48;3.30;99.90
50570;DHT22;36525;49.398;7.614;2022-12-07T08:30:16;3.30;99.90
50570;DHT22;36525;49.398;7.614;2022-12-07T08:32:46;3.30;99.90
50570;DHT22;36525;49.398;7.614;2022-12-07T08:35:15;3.30;99.90
50570;DHT22;36525;49.398;7.614;2022-12-07T08:37:42;3.30;99.90
50570;DHT22;36525;49.398;7.614;2022-12-07T08:40:11;3.40;99.90
50570;DHT22;36525;49.398;7.614;2022-12-07T08:42:42;3.40;99.90
50570;DHT22;36525;49.398;7.614;2022-12-07T08:45:12;3.50;99.90
50570;DHT22;36525;49.398;7.614;2022-12-07T08:50:19;3.60;99.90
50570;DHT22;36525;49.398;7.614;2022-12-07T08:52:53;3.70;99.90
50570;DHT22;36525;49.398;7.614;2022-12-07T08:55:22;3.80;99.90
50570;DHT22;36525;49.398;7.614;2022-12-07T08:57:50;3.80;99.90
50570;DHT22;36525;49.398;7.614;2022-12-07T09:00:17;3.90;99.90
50570;DHT22;36525;49.398;7.614;2022-12-07T09:02:45;3.90;99.90
50570;DHT22;36525;49.398;7.614;2022-12-07T09:05:13;3.90;99.90
50570;DHT22;36525;49.398;7.614;2022-12-07T09:07:50;4.00;99.90
50570;DHT22;36525;49.398;7.614;2022-12-07T09:10:18;4.00;99.90
50570;DHT22;36525;49.398;7.614;2022-12-07T09:15:12;3.90;99.90
50570;DHT22;36525;49.398;7.614;2022-12-07T09:17:39;4.00;99.90
50570;DHT22;36525;49.398;7.614;2022-12-07T09:20:07;4.00;99.90
50570;DHT22;36525;49.398;7.614;2022-12-07T09:22:34;4.00;99.90
50570;DHT22;36525;49.398;7.614;2022-12-07T09:25:02;4.10;99.90
50570;DHT22;36525;49.398;7.614;2022-12-07T09:27:30;4.00;99.90
50570;DHT22;36525;49.398;7.614;2022-12-07T09:29:57;4.00;99.90
50570;DHT22;36525;49.398;7.614;2022-12-07T09:32:24;4.00;99.90
50570;DHT22;36525;49.398;7.614;2022-12-07T09:34:51;4.10;99.90
50570;DHT22;36525;49.398;7.614;2022-12-07T09:37:18;4.10;99.90
50570;DHT22;36525;49.398;7.614;2022-12-07T09:39:45;4.20;99.90
50570;DHT22;36525;49.398;7.614;2022-12-07T09:42:36;4.20;99.90
50570;DHT22;36525;49.398;7.614;2022-12-07T09:45:10;4.30;99.90
50570;DHT22;36525;49.398;7.614;2022-12-07T09:47:39;4.40;99.90
50570;DHT22;36525;49.398;7.614;2022-12-07T09:50:13;4.40;99.90
50570;DHT22;36525;49.398;7.614;2022-12-07T09:52:45;4.60;99.90
50570;DHT22;36525;49.398;7.614;2022-12-07T09:55:19;4.70;99.90
50570;DHT22;36525;49.398;7.614;2022-12-07T09:57:50;4.70;99.90
50570;DHT22;36525;49.398;7.614;2022-12-07T10:00:21;4.60;99.90
50570;DHT22;36525;49.398;7.614;2022-12-07T10:03:02;4.70;99.90
50570;DHT22;36525;49.398;7.614;2022-12-07T10:05:49;4.80;99.90
50570;DHT22;36525;49.398;7.614;2022-12-07T10:08:17;4.80;99.90
50570;DHT22;36525;49.398;7.614;2022-12-07T10:10:46;4.80;99.90
50570;DHT22;36525;49.398;7.614;2022-12-07T10:13:22;4.80;99.90
50570;DHT22;36525;49.398;7.614;2022-12-07T10:16:01;4.80;99.90
50570;DHT22;36525;49.398;7.614;2022-12-07T10:18:41;4.80;99.90
50570;DHT22;36525;49.398;7.614;2022-12-07T10:23:37;4.70;99.90
50570;DHT22;36525;49.398;7.614;2022-12-07T10:27:00;4.80;99.90
50570;DHT22;36525;49.398;7.614;2022-12-07T10:29:36;4.80;99.90
50570;DHT22;36525;49.398;7.614;2022-12-07T10:32:21;4.80;99.90
50570;DHT22;36525;49.398;7.614;2022-12-07T10:35:21;4.80;99.90
50570;DHT22;36525;49.398;7.614;2022-12-07T10:37:53;4.80;99.90
50570;DHT22;36525;49.398;7.614;2022-12-07T10:40:29;4.70;99.90
50570;DHT22;36525;49.398;7.614;2022-12-07T10:43:19;4.70;99.90
50570;DHT22;36525;49.398;7.614;2022-12-07T10:48:43;4.60;99.90
50570;DHT22;36525;49.398;7.614;2022-12-07T10:51:23;4.50;99.90
50570;DHT22;36525;49.398;7.614;2022-12-07T10:54:10;4.50;99.90
50570;DHT22;36525;49.398;7.614;2022-12-07T10:56:52;4.50;99.90
50570;DHT22;36525;49.398;7.614;2022-12-07T10:59:57;4.60;99.90
50570;DHT22;36525;49.398;7.614;2022-12-07T11:02:46;4.80;99.90
50570;DHT22;36525;49.398;7.614;2022-12-07T11:11:16;4.90;99.90
50570;DHT22;36525;49.398;7.614;2022-12-07T11:17:20;5.00;99.90
50570;DHT22;36525;49.398;7.614;2022-12-07T11:20:27;5.00;99.90
50570;DHT22;36525;49.398;7.614;2022-12-07T11:23:14;5.00;99.90
50570;DHT22;36525;49.398;7.614;2022-12-07T11:34:52;5.30;99.90
50570;DHT22;36525;49.398;7.614;2022-12-07T11:37:40;5.30;99.90
50570;DHT22;36525;49.398;7.614;2022-12-07T11:40:20;5.40;99.90
50570;DHT22;36525;49.398;7.614;2022-12-07T11:43:23;5.40;99.90
50570;DHT22;36525;49.398;7.614;2022-12-07T11:46:08;5.50;99.90
50570;DHT22;36525;49.398;7.614;2022-12-07T11:51:22;5.90;99.90
50570;DHT22;36525;49.398;7.614;2022-12-07T11:54:21;6.00;99.90
50570;DHT22;36525;49.398;7.614;2022-12-07T11:56:54;6.00;99.90
50570;DHT22;36525;49.398;7.614;2022-12-07T11:59:28;6.00;99.90
50570;DHT22;36525;49.398;7.614;2022-12-07T12:02:11;6.00;99.90
50570;DHT22;36525;49.398;7.614;2022-12-07T12:07:44;5.70;99.90
50570;DHT22;36525;49.398;7.614;2022-12-07T12:25:46;5.80;99.90
50570;DHT22;36525;49.398;7.614;2022-12-07T12:28:27;5.80;99.90
50570;DHT22;36525;49.398;7.614;2022-12-07T12:31:29;5.70;99.90
50570;DHT22;36525;49.398;7.614;2022-12-07T12:34:01;5.70;99.90
50570;DHT22;36525;49.398;7.614;2022-12-07T12:36:44;5.70;99.90
50570;DHT22;36525;49.398;7.614;2022-12-07T12:39:17;5.70;99.90
50570;DHT22;36525;49.398;7.614;2022-12-07T12:51:56;5.30;99.90
50570;DHT22;36525;49.398;7.614;2022-12-07T12:54:32;5.20;99.90
50570;DHT22;36525;49.398;7.614;2022-12-07T12:57:09;5.20;99.90
50570;DHT22;36525;49.398;7.614;2022-12-07T13:02:27;5.00;99.90
50570;DHT22;36525;49.398;7.614;2022-12-07T13:05:18;5.00;99.90
50570;DHT22;36525;49.398;7.614;2022-12-07T13:18:24;4.50;99.90
50570;DHT22;36525;49.398;7.614;2022-12-07T13:29:14;5.20;99.90
50570;DHT22;36525;49.398;7.614;2022-12-07T13:31:51;5.60;99.90
50570;DHT22;36525;49.398;7.614;2022-12-07T13:39:54;6.90;99.90
50570;DHT22;36525;49.398;7.614;2022-12-07T13:42:41;6.70;99.90
50570;DHT22;36525;49.398;7.614;2022-12-07T13:45:24;6.40;99.90
50570;DHT22;36525;49.398;7.614;2022-12-07T13:48:28;6.00;99.90
50570;DHT22;36525;49.398;7.614;2022-12-07T13:51:01;5.70;99.90
50570;DHT22;36525;49.398;7.614;2022-12-07T13:53:29;5.50;99.90
50570;DHT22;36525;49.398;7.614;2022-12-07T13:55:58;5.40;99.90
50570;DHT22;36525;49.398;7.614;2022-12-07T13:58:31;5.20;99.90
50570;DHT22;36525;49.398;7.614;2022-12-07T14:00:59;5.10;99.90
50570;DHT22;36525;49.398;7.614;2022-12-07T14:03:32;5.00;99.90
50570;DHT22;36525;49.398;7.614;2022-12-07T14:06:23;4.90;99.90
50570;DHT22;36525;49.398;7.614;2022-12-07T14:09:16;4.90;99.90
50570;DHT22;36525;49.398;7.614;2022-12-07T14:11:48;4.80;99.90
50570;DHT22;36525;49.398;7.614;2022-12-07T14:14:36;4.80;99.90
50570;DHT22;36525;49.398;7.614;2022-12-07T14:17:18;4.70;99.90
50570;DHT22;36525;49.398;7.614;2022-12-07T14:19:48;4.70;99.90
50570;DHT22;36525;49.398;7.614;2022-12-07T14:22:35;4.60;99.90
50570;DHT22;36525;49.398;7.614;2022-12-07T14:25:24;4.60;99.90
50570;DHT22;36525;49.398;7.614;2022-12-07T14:27:56;4.60;99.90
50570;DHT22;36525;49.398;7.614;2022-12-07T14:30:30;4.50;99.90
50570;DHT22;36525;49.398;7.614;2022-12-07T14:33:03;4.50;99.90
50570;DHT22;36525;49.398;7.614;2022-12-07T14:35:32;4.50;99.90
50570;DHT22;36525;49.398;7.614;2022-12-07T14:37:59;4.50;99.90
50570;DHT22;36525;49.398;7.614;2022-12-07T14:40:28;4.50;99.90
50570;DHT22;36525;49.398;7.614;2022-12-07T14:43:00;4.40;99.90
50570;DHT22;36525;49.398;7.614;2022-12-07T14:45:37;4.40;99.90
50570;DHT22;36525;49.398;7.614;2022-12-07T14:48:16;4.40;99.90
50570;DHT22;36525;49.398;7.614;2022-12-07T14:51:03;4.40;99.90
50570;DHT22;36525;49.398;7.614;2022-12-07T14:53:52;4.40;99.90
50570;DHT22;36525;49.398;7.614;2022-12-07T14:56:23;4.30;99.90
50570;DHT22;36525;49.398;7.614;2022-12-07T14:58:51;4.20;99.90
50570;DHT22;36525;49.398;7.614;2022-12-07T15:01:18;4.20;99.90
50570;DHT22;36525;49.398;7.614;2022-12-07T15:03:45;4.10;99.90
50570;DHT22;36525;49.398;7.614;2022-12-07T15:06:16;4.00;99.90
50570;DHT22;36525;49.398;7.614;2022-12-07T15:08:44;4.00;99.90
50570;DHT22;36525;49.398;7.614;2022-12-07T15:11:13;3.90;99.90
50570;DHT22;36525;49.398;7.614;2022-12-07T15:13:41;3.80;99.90
50570;DHT22;36525;49.398;7.614;2022-12-07T15:16:26;3.80;99.90
50570;DHT22;36525;49.398;7.614;2022-12-07T15:19:19;3.70;99.90
50570;DHT22;36525;49.398;7.614;2022-12-07T15:21:55;3.70;99.90
50570;DHT22;36525;49.398;7.614;2022-12-07T15:24:23;3.60;99.90
50570;DHT22;36525;49.398;7.614;2022-12-07T15:26:50;3.50;99.90
50570;DHT22;36525;49.398;7.614;2022-12-07T15:29:18;3.30;99.90
50570;DHT22;36525;49.398;7.614;2022-12-07T15:31:50;3.30;99.90
50570;DHT22;36525;49.398;7.614;2022-12-07T15:34:25;3.30;99.90
50570;DHT22;36525;49.398;7.614;2022-12-07T15:36:53;3.20;99.90
50570;DHT22;36525;49.398;7.614;2022-12-07T15:39:20;3.20;99.90
50570;DHT22;36525;49.398;7.614;2022-12-07T15:41:48;3.10;99.90
50570;DHT22;36525;49.398;7.614;2022-12-07T15:44:15;3.20;99.90
50570;DHT22;36525;49.398;7.614;2022-12-07T15:47:00;3.10;99.90
50570;DHT22;36525;49.398;7.614;2022-12-07T15:49:27;3.10;99.90
50570;DHT22;36525;49.398;7.614;2022-12-07T15:51:54;3.00;99.90
50570;DHT22;36525;49.398;7.614;2022-12-07T15:56:51;2.90;99.90
50570;DHT22;36525;49.398;7.614;2022-12-07T15:59:18;2.80;99.90
50570;DHT22;36525;49.398;7.614;2022-12-07T16:01:45;2.70;99.90
50570;DHT22;36525;49.398;7.614;2022-12-07T16:04:12;2.70;99.90
50570;DHT22;36525;49.398;7.614;2022-12-07T16:06:40;2.60;99.90
50570;DHT22;36525;49.398;7.614;2022-12-07T16:09:07;2.50;99.90
50570;DHT22;36525;49.398;7.614;2022-12-07T16:11:34;2.40;99.90
50570;DHT22;36525;49.398;7.614;2022-12-07T16:14:01;2.40;99.90
50570;DHT22;36525;49.398;7.614;2022-12-07T16:16:28;2.40;99.90
50570;DHT22;36525;49.398;7.614;2022-12-07T16:18:55;2.30;99.90
50570;DHT22;36525;49.398;7.614;2022-12-07T16:21:23;2.30;99.90
50570;DHT22;36525;49.398;7.614;2022-12-07T16:23:51;2.30;99.90
50570;DHT22;36525;49.398;7.614;2022-12-07T16:26:21;2.30;99.90
50570;DHT22;36525;49.398;7.614;2022-12-07T16:28:49;2.20;99.90
50570;DHT22;36525;49.398;7.614;2022-12-07T16:31:19;2.10;99.90
50570;DHT22;36525;49.398;7.614;2022-12-07T16:33:48;2.00;99.90
50570;DHT22;36525;49.398;7.614;2022-12-07T16:36:16;2.00;99.90
50570;DHT22;36525;49.398;7.614;2022-12-07T16:39:05;1.90;99.90
50570;DHT22;36525;49.398;7.614;2022-12-07T16:41:32;1.80;99.90
50570;DHT22;36525;49.398;7.614;2022-12-07T16:44:04;1.80;99.90
50570;DHT22;36525;49.398;7.614;2022-12-07T16:46:35;1.70;99.90
50570;DHT22;36525;49.398;7.614;2022-12-07T16:49:04;1.70;99.90
50570;DHT22;36525;49.398;7.614;2022-12-07T16:51:31;1.70;99.90
50570;DHT22;36525;49.398;7.614;2022-12-07T16:54:01;1.70;99.90
50570;DHT22;36525;49.398;7.614;2022-12-07T16:56:27;1.80;99.90
50570;DHT22;36525;49.398;7.614;2022-12-07T16:58:58;1.80;99.90
50570;DHT22;36525;49.398;7.614;2022-12-07T17:01:25;1.90;99.90
50570;DHT22;36525;49.398;7.614;2022-12-07T17:03:56;2.00;99.90
50570;DHT22;36525;49.398;7.614;2022-12-07T17:06:27;2.10;99.90
50570;DHT22;36525;49.398;7.614;2022-12-07T17:08:56;2.20;99.90
50570;DHT22;36525;49.398;7.614;2022-12-07T17:11:28;2.20;99.90
50570;DHT22;36525;49.398;7.614;2022-12-07T17:13:59;2.40;99.90
50570;DHT22;36525;49.398;7.614;2022-12-07T17:16:45;2.40;99.90
50570;DHT22;36525;49.398;7.614;2022-12-07T17:19:13;2.40;99.90
50570;DHT22;36525;49.398;7.614;2022-12-07T17:21:42;2.40;99.90
50570;DHT22;36525;49.398;7.614;2022-12-07T17:24:12;2.30;99.90
50570;DHT22;36525;49.398;7.614;2022-12-07T17:26:41;2.30;99.90
50570;DHT22;36525;49.398;7.614;2022-12-07T17:29:11;2.40;99.90
50570;DHT22;36525;49.398;7.614;2022-12-07T17:31:40;2.40;99.90
50570;DHT22;36525;49.398;7.614;2022-12-07T17:34:15;2.50;99.90
50570;DHT22;36525;49.398;7.614;2022-12-07T17:36:42;2.40;99.90
50570;DHT22;36525;49.398;7.614;2022-12-07T17:39:15;2.40;99.90
50570;DHT22;36525;49.398;7.614;2022-12-07T17:41:43;2.40;99.90
50570;DHT22;36525;49.398;7.614;2022-12-07T17:44:29;2.40;99.90
50570;DHT22;36525;49.398;7.614;2022-12-07T17:46:56;2.40;99.90
50570;DHT22;36525;49.398;7.614;2022-12-07T17:49:25;2.50;99.90
50570;DHT22;36525;49.398;7.614;2022-12-07T17:51:53;2.50;99.90
50570;DHT22;36525;49.398;7.614;2022-12-07T17:54:38;2.50;99.90
50570;DHT22;36525;49.398;7.614;2022-12-07T17:57:05;2.50;99.90
50570;DHT22;36525;49.398;7.614;2022-12-07T17:59:33;2.50;99.90
50570;DHT22;36525;49.398;7.614;2022-12-07T18:02:00;2.60;99.90
50570;DHT22;36525;49.398;7.614;2022-12-07T18:04:27;2.60;99.90
50570;DHT22;36525;49.398;7.614;2022-12-07T18:06:59;2.60;99.90
50570;DHT22;36525;49.398;7.614;2022-12-07T18:09:40;2.60;99.90
50570;DHT22;36525;49.398;7.614;2022-12-07T18:12:08;2.60;99.90
50570;DHT22;36525;49.398;7.614;2022-12-07T18:14:35;2.60;99.90
50570;DHT22;36525;49.398;7.614;2022-12-07T18:17:02;2.60;99.90
50570;DHT22;36525;49.398;7.614;2022-12-07T18:19:29;2.60;99.90
50570;DHT22;36525;49.398;7.614;2022-12-07T18:21:58;2.70;99.90
50570;DHT22;36525;49.398;7.614;2022-12-07T18:24:36;2.60;99.90